• Join FlightAware (Why Join?)
  • Login
  • US Flag 
Gobble Gobble! 
04:55PM EST


 

Airport Tracker/Info


-or-


 

Live Flight TrackerFlight Track Log ✈ UAL395 ✈ 23-Jun-2013 ✈ KIAD - KORD

Flight Track Log - Related Links

Times and Time Zones

All times are in EDT time to prevent confusion due to time zone crossing. See the UAL395 flight status page for this flight to view local times or setup timezone preferences in your user account.

Time Position Orientation Groundspeed Altitude Reporting Facility
EDT Latitude Longitude Course Direction KTS MPH feet Rate Location/Type
02:44PM 38.9333 -77.5333 277° West 169 194 1,900  Level Potomac TRACON
02:45PM 38.9333 -77.6000 270° West 232 267 4,100 2,460 Climbing Potomac TRACON
02:46PM 38.9078 -77.6803 248° West 249 287 6,600 2,820 Climbing Washington Center
02:47PM 38.8897 -77.7572 253° West 270 311 9,500 2,400 Climbing Washington Center
02:48PM 38.8797 -77.8556 263° West 307 353 11,500 3,180 Climbing Washington Center
02:49PM 38.9500 -78.2690 270° West  Level FlightAware Approximate
02:49PM 38.8708 -77.9806 265° West 319 367 15,800  Level Washington Center
02:50PM 38.9542 -78.4121 277° West  Level FlightAware Approximate
02:50PM 38.8686 -78.1006 269° West 324 373 16,900  Level Washington Center
02:51PM 38.8636 -78.2336 267° West 347 399 17,900 1,500 Climbing Washington Center
02:52PM 38.8606 -78.3722 268° West 377 434 19,900 1,860 Climbing Washington Center
02:53PM 38.8611 -78.5189 270° West 394 453 21,600 1,500 Climbing Washington Center
02:55PM 38.8600 -78.7850 270° West 406 467 24,200 1,620 Climbing Indianapolis Center
02:56PM 38.8617 -78.9381 271° West 435 501 26,200 1,920 Climbing Indianapolis Center
02:57PM 38.8742 -79.1181 275° West 434 499 28,200 1,080 Climbing Indianapolis Center
02:58PM 38.8964 -79.2725 281° West 448 516 28,500 300 Climbing Indianapolis Center
02:59PM 38.9186 -79.4408 280° West 484 557 28,900 720 Climbing Indianapolis Center
03:00PM 38.9456 -79.6403 280° West 491 565 30,000 1,140 Climbing Indianapolis Center
03:01PM 38.9708 -79.8078 281° West 500 575 31,300 960 Climbing Washington Center
03:02PM 38.9917 -79.9797 279° West 500 575 32,100 900 Climbing Washington Center
03:03PM 39.0125 -80.1519 279° West 488 562 33,200 900 Climbing Indianapolis Center
03:04PM 39.0339 -80.3206 279° West 481 554 34,000 720 Climbing Indianapolis Center
03:05PM 39.0556 -80.4919 279° West 486 559 34,800 720 Climbing Indianapolis Center
03:06PM 39.1156 -80.6847 292° West 496 571 35,600 540 Climbing Indianapolis Center
03:07PM 39.1850 -80.8375 300° West 497 572 36,000 180 Climbing Indianapolis Center
03:08PM 39.2519 -80.9900 300° West 493 567 36,000  Level Indianapolis Center
03:09PM 39.3206 -81.1447 300° West 499 574 36,000  Level Indianapolis Center
03:10PM 39.3889 -81.3017 299° West 504 580 36,000  Level Indianapolis Center
03:11PM 39.4564 -81.4589 299° West 504 580 36,000  Level Indianapolis Center
03:12PM 39.5381 -81.6472 299° West 502 578 36,000  Level Indianapolis Center
03:13PM 39.6058 -81.8064 299° West 505 581 36,000  Level Indianapolis Center
03:15PM 39.6742 -81.9647 299° West 505 581 36,000  Level Indianapolis Center
03:16PM 39.7414 -82.1231 299° West 505 581 36,000  Level Indianapolis Center
03:17PM 39.8100 -82.2853 299° West 508 585 36,000  Level Indianapolis Center
03:18PM 39.8897 -82.4744 299° West 506 582 36,000  Level Indianapolis Center
03:19PM 39.9575 -82.6353 299° West 504 580 36,000  Level Indianapolis Center
03:20PM 40.0250 -82.7969 299° West 505 581 36,000 -60 Level Indianapolis Center
03:21PM 40.0914 -82.9586 298° West 505 581 35,900  Descending Indianapolis Center
03:22PM 40.1578 -83.1200 298° West 504 580 36,000  Climbing Indianapolis Center
03:23PM 40.2250 -83.2817 299° West 505 581 36,000  Level Indianapolis Center
03:24PM 40.3022 -83.4706 298° West 504 580 36,000  Level Indianapolis Center
03:25PM 40.3683 -83.6331 298° West 504 580 36,000  Level Indianapolis Center
03:26PM 40.4325 -83.7939 298° West 497 572 36,000 -300 Level Indianapolis Center
03:27PM 40.4969 -83.9567 298° West 500 575 35,500 -780 Descending Indianapolis Center
03:28PM 40.5622 -84.1197 298° West 501 577 34,500 -780 Descending Indianapolis Center
03:29PM 40.6283 -84.2850 298° West 507 583 34,000 -300 Descending Indianapolis Center
03:30PM 40.7039 -84.4786 297° West 506 582 34,000  Level Indianapolis Center
03:31PM 40.7692 -84.6442 298° West 507 583 34,000  Level Indianapolis Center
03:32PM 40.8350 -84.8086 298° West 503 579 34,000  Level Indianapolis Center
03:33PM 40.9011 -84.9819 297° West 501 577 34,000  Level Indianapolis Center
03:34PM 40.9642 -85.1444 297° West 500 575 34,000  Level Indianapolis Center
03:35PM 41.0467 -85.2908 307° West 500 575 34,000  Level Indianapolis Center
03:36PM 41.1283 -85.4342 307° West 498 573 34,000 -600 Level Indianapolis Center
03:37PM 41.1742 -85.6042 290° West 496 571 32,800 -2,520 Descending Indianapolis Center
03:38PM 41.2264 -85.8103 289° West 495 570 28,900 -3,420 Descending Indianapolis Center
03:39PM 41.2700 -85.9817 289° West 494 568 25,900 -1,920 Descending Indianapolis Center
03:40PM 41.3125 -86.1514 288° West 490 564 25,000 -540 Descending Indianapolis Center
03:41PM 41.3567 -86.3247 289° West 496 571 24,800 -1,320 Descending Indianapolis Center
03:43PM 41.4125 -86.5564 288° West 491 565 21,900 -2,220 Descending Chicago Center
03:44PM 41.4561 -86.7317 288° West 469 540 19,400 -2,340 Descending Chicago Center
03:45PM 41.4942 -86.8853 288° West 443 510 17,100 -2,520 Descending Chicago Center
03:46PM 41.5358 -87.0583 288° West 415 478 14,200 -2,460 Descending Chicago Center
03:47PM 41.5689 -87.1908 288° West 380 437 12,000 -2,040 Descending Chicago Center
03:48PM 41.6161 -87.3047 299° West 366 421 10,100 -1,020 Descending Chicago Center
03:49PM 41.6800 -87.4028 311° West 357 411 10,000 -300 Descending Chicago Center
03:50PM 41.7442 -87.5069 310° West 307 353 9,500 -1,020 Descending Chicago Center
03:51PM 41.7942 -87.5886 309° West 289 333 8,000 -1,200 Descending Chicago Center
03:52PM 41.8428 -87.6694 309° West 283 326 7,100 -540 Descending Chicago Center
03:53PM 41.8939 -87.7139 327° Northwest 244 281 7,000 -60 Descending Chicago Center
03:54PM 41.9517 -87.7114 North 216 249 7,000 -780 Level Chicago Center
03:55PM 42.0106 -87.6556 35° Northeast 217 250 5,500 -1,200 Descending Chicago Center
03:56PM 42.0589 -87.6069 37° Northeast 218 251 4,600 -1,080 Descending Chicago Center
03:57PM 42.1064 -87.6064 360° North 222 255 3,300 -780 Descending Chicago Center
03:58PM 42.0922 -87.6708 254° West 197 227 3,000 -300 Descending Chicago Center